Kotzebue, AK

7:10 AM AKDT on September 02, 2015 (GMT -0800)
Noatak | | Change Station
CLOSE
Current Station
Airport
Location: Noatak,
Elevation: 85 ft
Nearby Weather Stations

Elev 85 ft 67.57 °N, 162.98 °W | Updated 14 minutes ago

Overcast
Overcast
41 °F
Feels Like 38 °F
N
5
Wind Variable Wind from North

Today
High -- | Low -- °F
--% Chance of Precip.
Yesterday
High -- | Low -- °F
Precip. -- in
7:21 AM 10:18 PM
Waning Gibbous, 79% visible
Pressure 29.99 in
Visibility 10.0 miles
Clouds Overcast 11000 ft
Windchill 38 °F
Dew Point 36 °F
Humidity 81%
Rainfall 0.00 in
Snow Depth Not available.
UV 0 out of 12
Pollen Not available.
Air Quality Not available.
Flu Activity Not available.
METAR PAWN 021456Z AUTO 01004KT 10SM OVC110 05/02 A2999 RMK AO1 57003
Pressure 29.99 in
Visibility 10.0 miles
Clouds Overcast 11000 ft
Windchill 38 °F
Dew Point 36 °F
Humidity 81%
Rainfall 0.00 in
Snow Depth Not available.
UV 0 out of 12
Pollen Not available.
Air Quality Not available.
Flu Activity Not available.
METAR PAWN 021456Z AUTO 01004KT 10SM OVC110 05/02 A2999 RMK AO1 57003

10-Day Weather Forecast

×

Almanac

Astronomy

Sep. 02, 2015 Rise Set
Actual Time
Civil Twilight
Nautical Twilight
Astronomical Twilight
Moon
Length of Visible Light
Length of Day
Tomorrow will be .
, % of the Moon is Illuminated

Today's Extremes

State Highs State Lows

Community

WunderPhotos

Upload Photos

1,851,769 photos uploaded!

WunderBlogs® & News

Nearby

Air Quality

  Air Quality AQ Index Pollutant
Not available.

Snow Depth

Station Depth Elevation

Earthquake Activity

City Distance Mag. Time & Date
Minimum magnitude displayed is 2.5.

Coastal Water Temperatures

Place Temperature

Stations

Nearby Weather Stations

Station Location Temp. Windchill Dew Point Humidity Wind Precip. Elev Updated Type